createdAt,value
2022-08-04T00:00:20.445Z,66.70
2022-08-04T00:01:20.787Z,66.80
2022-08-04T00:02:21.089Z,66.80
2022-08-04T00:03:21.415Z,66.70
2022-08-04T00:04:21.753Z,66.60
2022-08-04T00:05:22.078Z,66.60
2022-08-04T00:06:22.390Z,66.70
2022-08-04T00:07:44.284Z,66.70
2022-08-04T00:08:24.024Z,66.60
2022-08-04T00:09:23.288Z,66.60
2022-08-04T00:10:23.598Z,66.70
2022-08-04T00:11:23.930Z,66.80
2022-08-04T00:12:31.204Z,66.80
2022-08-04T00:13:25.563Z,66.83
2022-08-04T00:14:24.829Z,66.93
2022-08-04T00:15:25.160Z,67.33
2022-08-04T00:16:25.472Z,67.33
2022-08-04T00:17:26.779Z,67.53
2022-08-04T00:18:26.033Z,67.53
2022-08-04T00:19:26.375Z,67.43
2022-08-04T00:20:26.710Z,67.53
2022-08-04T00:21:27.015Z,67.53
2022-08-04T00:22:27.338Z,67.53
2022-08-04T00:23:27.672Z,67.53
2022-08-04T00:24:28.980Z,67.43
2022-08-04T00:25:28.234Z,67.33
2022-08-04T00:26:28.564Z,67.13
2022-08-04T00:27:28.885Z,67.13
2022-08-04T00:28:29.216Z,67.23
2022-08-04T00:29:29.556Z,67.53
2022-08-04T00:30:29.870Z,67.63
2022-08-04T00:31:33.294Z,67.63
2022-08-04T00:32:34.374Z,67.72
2022-08-04T00:33:30.870Z,67.63
2022-08-04T00:34:31.215Z,67.72
2022-08-04T00:35:31.542Z,67.63
2022-08-04T00:36:31.850Z,67.63
2022-08-04T00:37:32.188Z,67.63
2022-08-04T00:38:32.502Z,67.72
2022-08-04T00:39:32.954Z,67.76
2022-08-04T00:40:33.175Z,67.76
2022-08-04T00:41:33.492Z,67.86
2022-08-04T00:42:33.805Z,67.86
2022-08-04T00:43:34.131Z,67.96
2022-08-04T00:44:34.489Z,67.96
2022-08-04T00:46:00.583Z,68.06
2022-08-04T00:46:36.105Z,67.96
2022-08-04T00:47:35.358Z,67.96
2022-08-04T00:48:35.694Z,67.96
2022-08-04T00:49:36.027Z,67.96
2022-08-04T00:50:36.359Z,68.06
2022-08-04T00:51:36.677Z,68.16
2022-08-04T00:52:36.999Z,68.26
2022-08-04T00:53:37.282Z,68.26
2022-08-04T00:54:37.628Z,68.29
2022-08-04T00:55:37.823Z,68.39
2022-08-04T00:56:38.142Z,68.49
2022-08-04T00:57:38.469Z,68.59
2022-08-04T00:58:38.808Z,68.59
2022-08-04T00:59:39.144Z,68.49
2022-08-04T01:00:39.460Z,68.29
2022-08-04T01:01:39.854Z,68.19
2022-08-04T01:02:40.062Z,68.29
2022-08-04T01:03:40.406Z,68.29
2022-08-04T01:04:40.742Z,68.29
2022-08-04T01:05:41.054Z,68.19
2022-08-04T01:06:41.388Z,68.29
2022-08-04T01:07:41.724Z,68.19
2022-08-04T01:08:42.043Z,67.99
2022-08-04T01:09:42.387Z,68.09
2022-08-04T01:10:42.694Z,68.29
2022-08-04T01:11:57.645Z,68.39
2022-08-04T01:12:44.317Z,68.39
2022-08-04T01:13:43.574Z,68.49
2022-08-04T01:14:43.908Z,68.39
2022-08-04T01:15:57.153Z,68.39
2022-08-04T01:16:45.527Z,68.29
2022-08-04T01:17:44.789Z,68.39
2022-08-04T01:18:45.108Z,68.52
2022-08-04T01:19:45.490Z,68.32
2022-08-04T01:20:45.695Z,68.32
2022-08-04T01:21:46.012Z,68.32
2022-08-04T01:22:46.339Z,68.52
2022-08-04T01:23:46.668Z,68.73
2022-08-04T01:24:47.001Z,68.93
2022-08-04T01:25:47.212Z,68.93
2022-08-04T01:26:57.404Z,68.93
2022-08-04T01:27:48.852Z,68.93
2022-08-04T01:28:48.149Z,69.12
2022-08-04T01:29:48.798Z,69.02
2022-08-04T01:30:48.643Z,69.02
2022-08-04T01:31:48.962Z,69.02
2022-08-04T01:32:49.304Z,69.02
2022-08-04T01:34:03.434Z,69.12
2022-08-04T01:34:50.926Z,69.23
2022-08-04T01:35:50.186Z,69.32
2022-08-04T01:36:50.613Z,69.43
2022-08-04T01:37:50.831Z,69.53
2022-08-04T01:38:51.176Z,69.62
2022-08-04T01:39:51.848Z,69.73
2022-08-04T01:40:51.731Z,69.73
2022-08-04T01:41:58.501Z,69.82
2022-08-04T01:42:53.358Z,69.43
2022-08-04T01:43:52.617Z,69.32
2022-08-04T01:44:52.960Z,69.23
2022-08-04T01:45:53.280Z,69.32
2022-08-04T01:46:53.607Z,69.53
2022-08-04T01:47:53.930Z,69.53
2022-08-04T01:48:54.284Z,69.43
2022-08-04T01:49:54.624Z,69.43
2022-08-04T01:50:54.939Z,69.56
2022-08-04T01:51:55.309Z,69.66
2022-08-04T01:52:55.484Z,69.66
2022-08-04T01:53:55.829Z,69.66
2022-08-04T01:54:56.162Z,69.66
2022-08-04T01:55:56.485Z,69.66
2022-08-04T01:56:56.813Z,69.66
2022-08-04T01:57:57.135Z,69.76
2022-08-04T01:58:57.466Z,69.76
2022-08-04T01:59:57.802Z,69.66
2022-08-04T02:00:58.205Z,69.66
2022-08-04T02:01:58.622Z,69.66
2022-08-04T02:02:58.815Z,69.86
2022-08-04T02:04:21.603Z,69.86
2022-08-04T02:05:00.341Z,69.86
2022-08-04T02:06:03.803Z,69.86
2022-08-04T02:06:59.869Z,69.86
2022-08-04T02:08:00.209Z,69.86
2022-08-04T02:09:00.543Z,69.86
2022-08-04T02:10:00.900Z,70.06
2022-08-04T02:11:01.091Z,69.86
2022-08-04T02:12:01.408Z,69.76
2022-08-04T02:13:01.738Z,69.89
2022-08-04T02:14:02.060Z,70.09
2022-08-04T02:15:02.409Z,70.09
2022-08-04T02:16:02.728Z,70.09
2022-08-04T02:17:03.043Z,69.99
2022-08-04T02:18:03.369Z,70.09
2022-08-04T02:19:03.704Z,69.99
2022-08-04T02:20:04.034Z,69.99
2022-08-04T02:21:04.378Z,69.99
2022-08-04T02:22:04.712Z,69.99
2022-08-04T02:23:05.046Z,69.99
2022-08-04T02:24:06.315Z,69.99
2022-08-04T02:25:05.704Z,69.99
2022-08-04T02:26:06.028Z,69.99
2022-08-04T02:27:06.347Z,69.99
2022-08-04T02:28:06.687Z,69.89
2022-08-04T02:29:07.024Z,70.09
2022-08-04T02:30:07.359Z,70.09
2022-08-04T02:31:07.558Z,70.19
2022-08-04T02:32:07.889Z,70.09
2022-08-04T02:33:08.219Z,70.09
2022-08-04T02:34:08.575Z,70.19
2022-08-04T02:35:08.885Z,70.43
2022-08-04T02:36:09.237Z,70.53
2022-08-04T02:37:09.462Z,70.62
2022-08-04T02:38:09.721Z,70.62
2022-08-04T02:39:10.110Z,70.53
2022-08-04T02:40:10.344Z,70.73
2022-08-04T02:41:10.684Z,70.83
2022-08-04T02:42:11.005Z,71.03
2022-08-04T02:43:11.331Z,71.03
2022-08-04T02:44:11.676Z,71.03
2022-08-04T02:45:12.037Z,70.93
2022-08-04T02:46:17.841Z,70.83
2022-08-04T02:47:13.545Z,70.73
2022-08-04T02:48:29.923Z,70.62
2022-08-04T02:49:14.107Z,70.83
2022-08-04T02:50:13.391Z,70.93
2022-08-04T02:51:13.701Z,70.83
2022-08-04T02:52:14.030Z,70.83
2022-08-04T02:53:14.354Z,70.93
2022-08-04T02:54:14.689Z,70.93
2022-08-04T02:55:15.018Z,71.03
2022-08-04T02:56:15.347Z,70.93
2022-08-04T02:57:15.672Z,70.93
2022-08-04T02:58:15.931Z,70.93
2022-08-04T02:59:16.176Z,70.83
2022-08-04T03:00:16.359Z,70.83
2022-08-04T03:01:16.777Z,70.62
2022-08-04T03:02:16.992Z,70.73
2022-08-04T03:03:17.342Z,70.62
2022-08-04T03:04:24.777Z,70.73
2022-08-04T03:05:18.866Z,70.62
2022-08-04T03:06:18.143Z,70.56
2022-08-04T03:07:18.517Z,70.46
2022-08-04T03:08:18.723Z,70.56
2022-08-04T03:09:19.088Z,70.46
2022-08-04T03:10:19.408Z,70.56
2022-08-04T03:11:19.631Z,70.76
2022-08-04T03:12:19.957Z,70.66
2022-08-04T03:13:20.297Z,70.46
2022-08-04T03:14:20.675Z,70.36
2022-08-04T03:15:20.899Z,70.36
2022-08-04T03:16:21.238Z,70.26
2022-08-04T03:17:21.791Z,70.36
2022-08-04T03:18:21.906Z,70.36
2022-08-04T03:19:22.266Z,70.46
2022-08-04T03:20:22.460Z,70.46
2022-08-04T03:21:22.810Z,70.56
2022-08-04T03:22:23.153Z,70.36
2022-08-04T03:23:23.509Z,70.36
2022-08-04T03:24:23.752Z,70.46
2022-08-04T03:25:23.973Z,70.46
2022-08-04T03:26:24.219Z,70.56
2022-08-04T03:27:24.434Z,70.76
2022-08-04T03:28:24.654Z,70.79
2022-08-04T03:29:36.311Z,70.79
2022-08-04T03:30:26.332Z,71.00
2022-08-04T03:31:25.624Z,71.00
2022-08-04T03:32:25.833Z,71.20
2022-08-04T03:33:26.196Z,71.20
2022-08-04T03:34:26.435Z,71.00
2022-08-04T03:35:26.717Z,70.89
2022-08-04T03:36:31.625Z,70.89
2022-08-04T03:37:28.247Z,71.00
2022-08-04T03:38:27.526Z,71.00
2022-08-04T03:39:27.989Z,71.09
2022-08-04T03:40:28.103Z,71.20
2022-08-04T03:41:55.024Z,71.30
2022-08-04T03:42:29.757Z,71.20
2022-08-04T03:43:58.699Z,71.09
2022-08-04T03:44:30.358Z,71.00
2022-08-04T03:45:29.661Z,70.96
2022-08-04T03:46:29.885Z,70.96
2022-08-04T03:47:30.222Z,71.00
2022-08-04T03:48:30.568Z,71.06
2022-08-04T03:49:30.947Z,71.30
2022-08-04T03:50:31.163Z,71.20
2022-08-04T03:51:35.186Z,71.20
2022-08-04T03:52:31.813Z,71.20
2022-08-04T03:53:32.035Z,71.09
2022-08-04T03:54:32.413Z,70.89
2022-08-04T03:55:32.642Z,70.89
2022-08-04T03:56:32.983Z,70.76
2022-08-04T03:57:33.334Z,70.86
2022-08-04T03:58:33.936Z,71.00
2022-08-04T03:59:34.009Z,71.09
2022-08-04T04:00:34.226Z,71.30
2022-08-04T04:02:00.962Z,71.09
2022-08-04T04:02:35.871Z,71.00
2022-08-04T04:03:35.147Z,70.96
2022-08-04T04:04:35.410Z,70.86
2022-08-04T04:05:58.810Z,70.76
2022-08-04T04:06:37.545Z,70.86
2022-08-04T04:07:36.760Z,70.86
2022-08-04T04:08:36.830Z,71.00
2022-08-04T04:09:49.688Z,71.00
2022-08-04T04:10:38.219Z,71.09
2022-08-04T04:11:55.322Z,71.09
2022-08-04T04:12:38.821Z,71.09
2022-08-04T04:13:38.114Z,71.09
2022-08-04T04:14:38.362Z,71.09
2022-08-04T04:15:38.607Z,70.86
2022-08-04T04:16:38.835Z,70.86
2022-08-04T04:17:39.080Z,70.76
2022-08-04T04:18:39.325Z,70.76
2022-08-04T04:19:39.595Z,70.76
2022-08-04T04:20:39.862Z,70.76
2022-08-04T04:21:40.115Z,70.76
2022-08-04T04:22:40.357Z,70.66
2022-08-04T04:23:40.594Z,70.66
2022-08-04T04:24:40.960Z,70.56
2022-08-04T04:25:41.198Z,70.46
2022-08-04T04:26:41.454Z,70.36
2022-08-04T04:27:41.682Z,70.36
2022-08-04T04:28:44.891Z,70.46
2022-08-04T04:29:42.294Z,70.56
2022-08-04T04:30:42.517Z,70.56
2022-08-04T04:31:42.751Z,70.46
2022-08-04T04:32:42.980Z,70.16
2022-08-04T04:33:43.230Z,70.16
2022-08-04T04:34:46.239Z,70.16
2022-08-04T04:35:43.726Z,70.26
2022-08-04T04:36:44.904Z,70.12
2022-08-04T04:37:48.648Z,70.23
2022-08-04T04:38:45.605Z,70.12
2022-08-04T04:39:44.805Z,69.73
2022-08-04T04:40:45.043Z,69.82
2022-08-04T04:41:45.294Z,69.82
2022-08-04T04:42:45.547Z,69.73
2022-08-04T04:43:51.792Z,69.73
2022-08-04T04:44:47.122Z,69.62
2022-08-04T04:45:46.415Z,69.53
2022-08-04T04:46:46.663Z,69.32
2022-08-04T04:48:08.229Z,69.23
2022-08-04T04:48:48.263Z,69.23
2022-08-04T04:49:47.653Z,69.32
2022-08-04T04:50:47.867Z,69.42
2022-08-04T04:51:48.116Z,69.53
2022-08-04T04:52:48.377Z,69.39
2022-08-04T04:53:48.617Z,69.49
2022-08-04T04:54:49.004Z,69.59
2022-08-04T04:55:49.088Z,69.69
2022-08-04T04:56:49.327Z,69.79
2022-08-04T04:57:54.507Z,69.69
2022-08-04T04:58:50.970Z,69.49
2022-08-04T04:59:50.161Z,69.39
2022-08-04T05:00:50.400Z,68.89
2022-08-04T05:01:50.728Z,68.89
2022-08-04T05:02:50.965Z,68.66
2022-08-04T05:03:51.201Z,68.55
2022-08-04T05:04:51.455Z,68.66
2022-08-04T05:05:51.702Z,68.46
2022-08-04T05:06:54.366Z,68.52
2022-08-04T05:07:52.191Z,67.79
2022-08-04T05:08:54.382Z,66.26
2022-08-04T05:09:52.706Z,65.40
2022-08-04T05:10:52.964Z,64.04
2022-08-04T05:11:54.440Z,63.78
2022-08-04T05:14:32.354Z,62.05
2022-08-04T05:14:35.067Z,60.53
2022-08-04T05:14:55.127Z,59.51
2022-08-04T05:15:54.437Z,58.78
2022-08-04T05:16:54.696Z,58.33
2022-08-04T05:17:54.957Z,57.83
2022-08-04T05:18:55.227Z,57.31
2022-08-04T05:19:55.480Z,57.08
2022-08-04T05:20:55.740Z,56.68
2022-08-04T05:21:56.013Z,56.56
2022-08-04T05:22:56.272Z,56.43
2022-08-04T05:23:56.532Z,55.94
2022-08-04T05:24:56.821Z,55.83
2022-08-04T05:25:59.478Z,55.81
2022-08-04T05:26:57.313Z,55.51
2022-08-04T05:27:57.571Z,55.19
2022-08-04T05:28:57.834Z,55.29
2022-08-04T05:29:58.106Z,54.79
2022-08-04T05:30:58.375Z,54.17
2022-08-04T05:31:58.627Z,54.27
2022-08-04T05:33:00.030Z,54.24
2022-08-04T05:33:59.117Z,53.95
2022-08-04T05:34:59.377Z,53.95
2022-08-04T05:36:18.999Z,53.72
2022-08-04T05:37:00.979Z,53.72
2022-08-04T05:38:01.382Z,53.60
2022-08-04T05:39:01.541Z,53.40
2022-08-04T05:40:00.945Z,53.11
2022-08-04T05:41:01.210Z,52.88
2022-08-04T05:42:04.532Z,52.78
2022-08-04T05:43:01.812Z,52.48
2022-08-04T05:44:02.061Z,52.69
2022-08-04T05:45:02.364Z,52.46
2022-08-04T05:46:02.762Z,52.46
2022-08-04T05:47:02.856Z,52.66
2022-08-04T05:48:03.145Z,52.26
2022-08-04T05:49:03.375Z,52.66
2022-08-04T05:50:03.638Z,52.36
2022-08-04T05:51:03.894Z,52.24
2022-08-04T05:52:04.155Z,52.04
2022-08-04T05:53:04.408Z,51.94
2022-08-04T05:54:04.668Z,51.45
2022-08-04T05:55:04.937Z,51.82
2022-08-04T05:56:05.214Z,51.62
2022-08-04T05:57:05.519Z,51.52
2022-08-04T05:58:05.777Z,51.42
2022-08-04T05:59:06.049Z,51.50
2022-08-04T06:00:19.746Z,51.40
2022-08-04T06:01:07.641Z,51.20
2022-08-04T06:02:07.025Z,50.78
2022-08-04T06:03:07.273Z,50.98
2022-08-04T06:04:11.519Z,50.59
2022-08-04T06:05:07.863Z,50.46
2022-08-04T06:06:08.120Z,49.87
2022-08-04T06:07:08.379Z,49.57
2022-08-04T06:08:13.649Z,49.77
2022-08-04T06:09:09.880Z,49.57
2022-08-04T06:10:09.223Z,49.50
2022-08-04T06:11:09.494Z,50.16
2022-08-04T06:12:09.748Z,50.26
2022-08-04T06:13:10.025Z,49.87
2022-08-04T06:14:11.409Z,49.67
2022-08-04T06:15:10.625Z,49.48
2022-08-04T06:16:18.107Z,49.45
2022-08-04T06:18:32.241Z,49.26
2022-08-04T06:18:32.787Z,49.35
2022-08-04T06:20:00.174Z,49.55
2022-08-04T06:20:21.784Z,49.45
2022-08-04T06:21:16.421Z,49.52
2022-08-04T06:22:12.432Z,49.13
2022-08-04T06:23:12.683Z,48.64
2022-08-04T06:24:12.941Z,48.25
2022-08-04T06:25:13.207Z,48.54
2022-08-04T06:26:13.535Z,48.35
2022-08-04T06:27:13.856Z,48.35
2022-08-04T06:28:14.068Z,48.35
2022-08-04T06:29:14.317Z,48.14
2022-08-04T06:30:14.608Z,48.54
2022-08-04T06:32:28.436Z,47.85
2022-08-04T06:32:29.737Z,48.35
2022-08-04T06:33:16.452Z,47.97
2022-08-04T06:34:15.649Z,48.66
2022-08-04T06:35:15.991Z,48.19
2022-08-04T06:36:16.233Z,48.59
2022-08-04T06:37:41.431Z,48.49
2022-08-04T06:38:17.804Z,48.59
2022-08-04T06:39:17.169Z,48.69
2022-08-04T06:40:31.257Z,48.79
2022-08-04T06:41:18.768Z,49.28
2022-08-04T06:42:22.530Z,48.91
2022-08-04T06:43:18.396Z,49.01
2022-08-04T06:44:18.813Z,49.20
2022-08-04T06:45:18.902Z,49.10
2022-08-04T06:46:19.148Z,49.20
2022-08-04T06:47:19.632Z,49.69
2022-08-04T06:48:19.671Z,49.50
2022-08-04T06:49:19.931Z,49.40
2022-08-04T06:51:25.117Z,49.40
2022-08-04T06:51:26.532Z,49.52
2022-08-04T06:52:21.772Z,49.82
2022-08-04T06:53:21.086Z,50.43
2022-08-04T06:54:21.339Z,50.73
2022-08-04T06:55:21.593Z,51.13
2022-08-04T06:56:21.840Z,51.25
2022-08-04T06:57:22.322Z,51.35
2022-08-04T06:58:22.375Z,51.45
2022-08-04T06:59:22.625Z,51.37
2022-08-04T07:00:22.935Z,52.19
2022-08-04T07:01:23.166Z,52.69
2022-08-04T07:02:23.419Z,53.11
2022-08-04T07:03:23.657Z,53.23
2022-08-04T07:04:23.898Z,53.23
2022-08-04T07:05:24.155Z,54.05
2022-08-04T07:06:24.400Z,54.35
2022-08-04T07:07:33.894Z,54.54
2022-08-04T07:08:25.969Z,54.54
2022-08-04T07:09:25.357Z,54.27
2022-08-04T07:10:25.685Z,54.07
2022-08-04T07:11:25.820Z,53.97
2022-08-04T07:12:26.120Z,54.07
2022-08-04T07:13:26.356Z,54.57
2022-08-04T07:14:26.645Z,54.96
2022-08-04T07:15:26.928Z,54.77
2022-08-04T07:16:29.758Z,54.37
2022-08-04T07:17:28.826Z,54.77
2022-08-04T07:18:29.506Z,54.17
2022-08-04T07:19:29.967Z,53.70
2022-08-04T07:20:33.864Z,53.90
2022-08-04T07:21:29.656Z,53.20
2022-08-04T07:22:29.087Z,53.80
2022-08-04T07:23:30.077Z,54.30
2022-08-04T07:24:30.309Z,54.86
2022-08-04T07:26:00.149Z,54.20
2022-08-04T07:26:31.901Z,54.27
2022-08-04T07:27:47.731Z,54.49
2022-08-04T07:28:31.592Z,54.07
2022-08-04T07:29:30.973Z,54.27
2022-08-04T07:30:31.243Z,54.67
2022-08-04T07:31:34.611Z,55.16
2022-08-04T07:32:31.843Z,53.67
2022-08-04T07:33:32.097Z,54.07
2022-08-04T07:34:32.370Z,53.48
2022-08-04T07:36:04.693Z,53.78
2022-08-04T07:36:40.697Z,53.38
2022-08-04T07:37:39.354Z,53.38
2022-08-04T07:38:37.626Z,53.08
2022-08-04T07:39:34.017Z,53.18
2022-08-04T07:40:34.829Z,53.28
2022-08-04T07:41:35.930Z,53.78
2022-08-04T07:42:34.463Z,52.59
2022-08-04T07:43:34.733Z,53.06
2022-08-04T07:44:34.973Z,52.76
2022-08-04T07:45:35.249Z,52.66
2022-08-04T07:46:35.460Z,53.06
2022-08-04T07:47:35.722Z,53.35
2022-08-04T07:48:36.012Z,52.86
2022-08-04T07:49:55.275Z,52.96
2022-08-04T07:50:37.553Z,53.45
2022-08-04T07:51:36.873Z,53.45
2022-08-04T07:52:39.980Z,53.45
2022-08-04T07:53:55.109Z,53.45
2022-08-04T07:54:38.679Z,53.55
2022-08-04T07:55:37.876Z,53.65
2022-08-04T07:56:38.136Z,53.55
2022-08-04T07:57:40.587Z,53.95
2022-08-04T07:58:38.681Z,54.22
2022-08-04T07:59:38.978Z,54.42
2022-08-04T08:00:39.219Z,54.22
2022-08-04T08:01:39.471Z,53.82
2022-08-04T08:02:39.739Z,53.45
2022-08-04T08:03:40.173Z,53.13
2022-08-04T08:04:40.281Z,53.13
2022-08-04T08:06:16.348Z,53.23
2022-08-04T08:06:43.475Z,52.93
2022-08-04T08:07:50.695Z,52.83
2022-08-04T08:08:42.391Z,52.83
2022-08-04T08:09:41.733Z,52.83
2022-08-04T08:10:42.093Z,52.73
2022-08-04T08:12:37.593Z,52.64
2022-08-04T08:12:50.781Z,52.83
2022-08-04T08:13:43.835Z,52.64
2022-08-04T08:14:43.164Z,52.51
2022-08-04T08:15:43.425Z,52.34
2022-08-04T08:16:43.691Z,52.51
2022-08-04T08:17:59.096Z,52.51
2022-08-04T08:18:49.885Z,52.71
2022-08-04T08:19:44.631Z,52.51
2022-08-04T08:20:44.887Z,52.91
2022-08-04T08:21:58.869Z,52.81
2022-08-04T08:22:46.370Z,52.81
2022-08-04T08:23:45.690Z,52.81
2022-08-04T08:24:45.941Z,53.00
2022-08-04T08:25:46.203Z,52.71
2022-08-04T08:26:46.480Z,52.41
2022-08-04T08:27:56.071Z,52.12
2022-08-04T08:28:47.952Z,52.01
2022-08-04T08:29:47.285Z,51.79
2022-08-04T08:30:52.852Z,51.70
2022-08-04T08:31:56.503Z,52.09
2022-08-04T08:32:49.663Z,52.19
2022-08-04T08:33:48.517Z,52.09
2022-08-04T08:34:48.777Z,52.09
2022-08-04T08:35:54.184Z,51.99
2022-08-04T08:36:50.298Z,51.70
2022-08-04T08:37:49.656Z,51.70
2022-08-04T08:38:49.914Z,51.89
2022-08-04T08:39:50.199Z,51.89
2022-08-04T08:40:50.472Z,51.70
2022-08-04T08:41:52.080Z,51.99
2022-08-04T08:42:51.040Z,52.09
2022-08-04T08:44:00.569Z,52.19
2022-08-04T08:44:57.427Z,52.39
2022-08-04T08:45:52.821Z,52.48
2022-08-04T08:46:52.141Z,52.39
2022-08-04T08:48:05.520Z,52.19
2022-08-04T08:48:53.656Z,51.89
2022-08-04T08:51:02.552Z,52.29
2022-08-04T08:52:02.822Z,52.26
2022-08-04T08:53:03.262Z,52.56
2022-08-04T08:54:03.392Z,52.17
2022-08-04T08:55:03.622Z,51.67
2022-08-04T08:56:03.892Z,51.18
2022-08-04T08:57:04.155Z,51.07
2022-08-04T08:58:04.402Z,51.57
2022-08-04T08:59:04.685Z,51.97
2022-08-04T09:00:04.951Z,51.47
2022-08-04T09:01:05.275Z,51.97
2022-08-04T09:02:05.533Z,51.47
2022-08-04T09:03:05.783Z,51.57
2022-08-04T09:04:06.034Z,51.77
2022-08-04T09:05:06.331Z,51.57
2022-08-04T09:06:06.583Z,51.57
2022-08-04T09:07:06.835Z,51.67
2022-08-04T09:08:07.096Z,51.35
2022-08-04T09:09:07.358Z,51.47
2022-08-04T09:10:07.616Z,51.18
2022-08-04T09:11:07.879Z,51.54
2022-08-04T09:12:08.210Z,51.54
2022-08-04T09:13:08.494Z,51.35
2022-08-04T09:14:08.740Z,50.95
2022-08-04T09:15:09.022Z,51.15
2022-08-04T09:16:09.272Z,50.95
2022-08-04T09:17:09.541Z,50.66
2022-08-04T09:18:09.802Z,50.46
2022-08-04T09:19:10.065Z,50.26
2022-08-04T09:20:11.428Z,50.36
2022-08-04T09:21:10.736Z,50.24
2022-08-04T09:22:12.874Z,50.24
2022-08-04T09:23:11.225Z,49.74
2022-08-04T09:24:35.816Z,49.55
2022-08-04T09:25:12.846Z,49.74
2022-08-04T09:26:12.147Z,50.04
2022-08-04T09:27:12.407Z,49.55
2022-08-04T09:28:12.675Z,48.56
2022-08-04T09:29:12.938Z,49.13
2022-08-04T09:30:13.220Z,49.52
2022-08-04T09:31:13.487Z,48.44
2022-08-04T09:32:13.760Z,48.54
2022-08-04T09:33:14.020Z,47.75
2022-08-04T09:34:14.312Z,47.53
2022-08-04T09:35:15.953Z,47.33
2022-08-04T09:36:14.884Z,45.95
2022-08-04T09:37:16.212Z,46.15
2022-08-04T09:38:15.533Z,46.04
2022-08-04T09:39:15.848Z,46.04
2022-08-04T09:40:31.142Z,46.81
2022-08-04T09:41:20.780Z,46.12
2022-08-04T09:42:17.745Z,45.73
2022-08-04T09:43:17.034Z,45.53
2022-08-04T09:44:52.161Z,45.43
2022-08-04T09:45:26.752Z,45.34
2022-08-04T09:46:18.968Z,45.31
2022-08-04T09:47:18.302Z,44.33
2022-08-04T09:48:18.567Z,44.43
2022-08-04T09:49:18.848Z,44.92
2022-08-04T09:50:19.140Z,44.80
2022-08-04T09:51:19.400Z,44.21
2022-08-04T09:52:19.987Z,44.21
2022-08-04T09:53:19.892Z,45.00
2022-08-04T09:54:29.333Z,45.68
2022-08-04T09:55:21.644Z,45.49
2022-08-04T09:56:20.796Z,45.19
2022-08-04T09:57:20.944Z,44.70
2022-08-04T09:58:21.204Z,45.49
2022-08-04T09:59:21.473Z,45.59
2022-08-04T10:00:40.576Z,45.88
2022-08-04T10:01:23.762Z,46.18
2022-08-04T10:02:22.585Z,46.37
2022-08-04T10:03:22.592Z,46.28
2022-08-04T10:04:22.741Z,45.98
2022-08-04T10:05:23.020Z,45.39
2022-08-04T10:06:23.286Z,45.59
2022-08-04T10:07:23.680Z,44.29
2022-08-04T10:08:23.868Z,45.17
2022-08-04T10:09:24.203Z,44.68
2022-08-04T10:10:24.390Z,44.29
2022-08-04T10:11:24.660Z,45.27
2022-08-04T10:12:24.928Z,44.78
2022-08-04T10:13:25.193Z,44.68
2022-08-04T10:14:26.052Z,44.66
2022-08-04T10:15:25.774Z,45.15
2022-08-04T10:16:26.046Z,44.76
2022-08-04T10:17:26.317Z,45.15
2022-08-04T10:18:26.588Z,44.56
2022-08-04T10:19:27.605Z,44.85
2022-08-04T10:20:36.473Z,45.35
2022-08-04T10:21:28.377Z,45.45
2022-08-04T10:22:37.090Z,44.76
2022-08-04T10:23:28.985Z,45.15
2022-08-04T10:24:28.320Z,44.66
2022-08-04T10:26:02.802Z,45.05
2022-08-04T10:26:29.817Z,45.45
2022-08-04T10:27:29.139Z,45.25
2022-08-04T10:28:29.401Z,45.25
2022-08-04T10:29:29.660Z,45.15
2022-08-04T10:30:29.941Z,44.85
2022-08-04T10:31:30.239Z,44.26
2022-08-04T10:32:30.484Z,44.76
2022-08-04T10:33:30.756Z,44.34
2022-08-04T10:34:31.064Z,45.03
2022-08-04T10:35:31.352Z,44.73
2022-08-04T10:36:31.615Z,44.83
2022-08-04T10:38:00.086Z,45.03
2022-08-04T10:38:33.118Z,44.34
2022-08-04T10:39:42.710Z,44.05
2022-08-04T10:40:33.776Z,44.05
2022-08-04T10:41:33.098Z,44.05
2022-08-04T10:42:33.349Z,44.64
2022-08-04T10:43:33.608Z,43.55
2022-08-04T10:44:33.859Z,43.26
2022-08-04T10:45:35.258Z,43.26
2022-08-04T10:46:34.460Z,43.06
2022-08-04T10:47:34.711Z,43.04
2022-08-04T10:48:35.282Z,44.02
2022-08-04T10:49:35.298Z,43.73
2022-08-04T10:50:35.563Z,44.02
2022-08-04T10:51:57.778Z,43.73
2022-08-04T10:52:37.074Z,44.42
2022-08-04T10:53:36.393Z,44.42
2022-08-04T10:54:36.638Z,43.93
2022-08-04T10:56:07.110Z,43.63
2022-08-04T10:56:38.175Z,41.96
2022-08-04T10:57:37.496Z,42.06
2022-08-04T10:58:47.469Z,42.04
2022-08-04T10:59:39.105Z,42.43
2022-08-04T11:00:38.437Z,42.63
2022-08-04T11:01:50.802Z,42.53
2022-08-04T11:02:40.012Z,41.74
2022-08-04T11:03:39.230Z,42.63
2022-08-04T11:04:39.517Z,41.84
2022-08-04T11:05:43.924Z,43.00
2022-08-04T11:06:40.060Z,42.32
2022-08-04T11:07:40.342Z,42.92
2022-08-04T11:08:40.601Z,42.72
2022-08-04T11:09:40.883Z,42.53
2022-08-04T11:10:41.167Z,43.61
2022-08-04T11:12:00.566Z,41.96
2022-08-04T11:12:42.653Z,42.65
2022-08-04T11:13:46.827Z,42.45
2022-08-04T11:14:43.214Z,41.67
2022-08-04T11:15:42.576Z,41.74
2022-08-04T11:16:42.847Z,41.74
2022-08-04T11:17:43.119Z,40.86
2022-08-04T11:18:43.386Z,41.45
2022-08-04T11:19:47.263Z,41.06
2022-08-04T11:20:44.909Z,41.03
2022-08-04T11:21:44.241Z,41.14
2022-08-04T11:22:44.521Z,41.53
2022-08-04T11:23:44.791Z,41.92
2022-08-04T11:24:45.111Z,40.55
2022-08-04T11:25:48.501Z,40.45
2022-08-04T11:26:46.612Z,39.47
2022-08-04T11:27:45.943Z,39.94
2022-08-04T11:28:46.244Z,39.84
2022-08-04T11:29:46.527Z,40.43
2022-08-04T11:30:46.804Z,40.13
2022-08-04T11:31:51.477Z,41.02
2022-08-04T11:32:47.425Z,40.92
2022-08-04T11:33:47.698Z,40.92
2022-08-04T11:34:52.829Z,40.53
2022-08-04T11:35:49.218Z,41.41
2022-08-04T11:36:48.428Z,41.41
2022-08-04T11:37:48.718Z,40.82
2022-08-04T11:38:50.911Z,40.16
2022-08-04T11:39:49.269Z,41.02
2022-08-04T11:40:55.882Z,40.13
2022-08-04T11:41:50.773Z,40.43
2022-08-04T11:42:50.081Z,40.62
2022-08-04T11:44:00.876Z,40.72
2022-08-04T11:44:51.738Z,39.94
2022-08-04T11:45:50.963Z,40.23
2022-08-04T11:46:51.223Z,41.02
2022-08-04T11:47:51.475Z,40.03
2022-08-04T11:48:51.743Z,39.33
2022-08-04T11:49:56.695Z,39.33
2022-08-04T11:50:54.156Z,39.33
2022-08-04T11:51:52.496Z,39.92
2022-08-04T11:52:52.803Z,39.43
2022-08-04T11:53:53.087Z,39.14
2022-08-04T11:54:54.712Z,39.51
2022-08-04T11:56:08.003Z,39.61
2022-08-04T11:56:54.864Z,39.70
2022-08-04T11:57:54.589Z,40.39
2022-08-04T11:58:54.399Z,39.41
2022-08-04T11:59:54.709Z,39.31
2022-08-04T12:00:55.014Z,40.09
2022-08-04T12:01:55.366Z,39.11
2022-08-04T12:02:55.642Z,39.22
2022-08-04T12:03:59.626Z,39.70
2022-08-04T12:04:57.873Z,39.31
2022-08-04T12:05:56.814Z,39.61
2022-08-04T12:07:15.031Z,39.03
2022-08-04T12:07:59.984Z,39.92
2022-08-04T12:08:57.346Z,39.53
2022-08-04T12:09:57.636Z,38.35
2022-08-04T12:10:57.908Z,38.74
2022-08-04T12:11:58.225Z,39.22
2022-08-04T12:12:59.215Z,39.11
2022-08-04T12:14:00.815Z,39.22
2022-08-04T12:14:59.693Z,39.22
2022-08-04T12:16:00.042Z,38.92
2022-08-04T12:16:59.524Z,38.72
2022-08-04T12:17:59.828Z,38.23
2022-08-04T12:19:00.100Z,37.84
2022-08-04T12:20:05.308Z,39.01
2022-08-04T12:21:01.685Z,38.41
2022-08-04T12:22:00.977Z,38.53
2022-08-04T12:23:01.211Z,37.65
2022-08-04T12:24:01.515Z,37.84
2022-08-04T12:25:01.827Z,38.33
2022-08-04T12:26:02.099Z,39.41
2022-08-04T12:27:02.376Z,39.01
2022-08-04T12:28:02.666Z,37.84
2022-08-04T12:29:11.357Z,39.01
2022-08-04T12:30:58.403Z,39.31
2022-08-04T12:31:09.736Z,38.60
2022-08-04T12:32:04.740Z,39.59
2022-08-04T12:33:04.080Z,39.09
2022-08-04T12:34:06.626Z,38.02
2022-08-04T12:35:04.633Z,38.21
2022-08-04T12:36:11.206Z,38.31
2022-08-04T12:37:06.253Z,38.31
2022-08-04T12:38:05.617Z,39.27
2022-08-04T12:39:05.924Z,38.31
2022-08-04T12:40:30.109Z,38.51
2022-08-04T12:41:07.484Z,38.60
2022-08-04T12:42:06.801Z,38.31
2022-08-04T12:43:07.054Z,38.04
2022-08-04T12:44:07.325Z,39.69
2022-08-04T12:45:08.620Z,39.41
2022-08-04T12:46:07.845Z,38.62
2022-08-04T12:47:27.071Z,40.00
2022-08-04T12:48:09.711Z,39.90
2022-08-04T12:49:08.727Z,38.82
2022-08-04T12:50:09.020Z,39.09
2022-08-04T12:52:06.276Z,39.59
2022-08-04T12:52:10.682Z,37.15
2022-08-04T12:53:09.940Z,38.12
2022-08-04T12:54:10.219Z,38.12
2022-08-04T12:55:10.520Z,38.90
2022-08-04T12:56:10.790Z,38.31
2022-08-04T12:57:11.079Z,37.73